createdAt,value
2022-08-19T00:00:21.542Z,16.42
2022-08-19T00:05:27.116Z,18.08
2022-08-19T00:10:30.981Z,14.90
2022-08-19T00:15:34.311Z,17.48
2022-08-19T00:20:39.488Z,17.20
2022-08-19T00:25:42.815Z,15.90
2022-08-19T00:30:52.930Z,18.98
2022-08-19T00:35:57.864Z,17.10
2022-08-19T00:41:01.049Z,17.00
2022-08-19T00:46:05.776Z,16.52
2022-08-19T00:51:11.190Z,18.08
2022-08-19T00:56:17.093Z,16.35
2022-08-19T01:01:21.034Z,20.25
2022-08-19T01:06:29.796Z,19.38
2022-08-19T01:11:35.257Z,18.38
2022-08-19T01:16:39.945Z,17.60
2022-08-19T01:21:54.646Z,17.02
2022-08-19T01:26:59.511Z,16.00
2022-08-19T01:32:03.739Z,14.07
2022-08-19T01:37:12.012Z,16.70
2022-08-19T01:42:16.682Z,15.57
2022-08-19T01:47:20.320Z,16.02
2022-08-19T01:52:23.699Z,14.98
2022-08-19T01:57:28.354Z,14.77
2022-08-19T02:02:31.653Z,14.93
2022-08-19T02:07:35.172Z,16.05
2022-08-19T02:12:42.723Z,15.38
2022-08-19T02:17:45.993Z,15.60
2022-08-19T02:22:49.226Z,15.15
2022-08-19T02:27:54.793Z,16.45
2022-08-19T02:32:59.024Z,14.60
2022-08-19T02:38:20.045Z,14.82
2022-08-19T02:43:26.781Z,14.90
2022-08-19T02:48:34.431Z,14.27
2022-08-19T02:53:38.334Z,15.80
2022-08-19T02:58:44.118Z,14.43
2022-08-19T03:03:47.566Z,16.85
2022-08-19T03:08:51.424Z,15.85
2022-08-19T03:13:56.344Z,15.88
2022-08-19T03:19:03.533Z,16.40
2022-08-19T03:24:09.540Z,14.52
2022-08-19T03:29:14.768Z,16.52
2022-08-19T03:34:32.303Z,14.63
2022-08-19T03:39:36.175Z,17.50
2022-08-19T03:44:41.006Z,15.65
2022-08-19T03:49:44.434Z,15.00
2022-08-19T03:54:47.646Z,15.48
2022-08-19T03:59:52.265Z,17.60
2022-08-19T04:04:56.567Z,15.50
2022-08-19T04:10:00.342Z,17.25
2022-08-19T04:15:06.517Z,18.83
2022-08-19T04:20:11.152Z,16.17
2022-08-19T04:25:14.625Z,16.10
2022-08-19T04:30:20.365Z,14.85
2022-08-19T04:35:25.015Z,18.10
2022-08-19T04:40:45.528Z,17.05
2022-08-19T04:45:56.864Z,17.70
2022-08-19T04:51:09.128Z,17.65
2022-08-19T04:56:14.689Z,17.65
2022-08-19T05:01:21.967Z,17.95
2022-08-19T05:06:25.928Z,17.73
2022-08-19T05:11:31.580Z,17.90
2022-08-19T05:16:36.709Z,18.05
2022-08-19T05:21:58.391Z,16.63
2022-08-19T05:27:03.559Z,17.02
2022-08-19T05:32:09.856Z,19.25
2022-08-19T05:37:13.138Z,18.05
2022-08-19T05:42:16.518Z,18.38
2022-08-19T05:47:21.661Z,19.67
2022-08-19T05:52:25.919Z,18.48
2022-08-19T05:57:30.154Z,19.00
2022-08-19T06:02:36.198Z,20.20
2022-08-19T06:07:41.034Z,19.13
2022-08-19T06:12:44.278Z,18.10
2022-08-19T06:17:48.889Z,15.90
2022-08-19T06:22:52.589Z,16.35
2022-08-19T06:28:14.073Z,16.05
2022-08-19T06:33:19.842Z,17.67
2022-08-19T06:38:24.581Z,18.40
2022-08-19T06:43:28.196Z,17.33
2022-08-19T06:48:37.729Z,19.17
2022-08-19T06:58:52.885Z,18.38
2022-08-19T07:03:57.600Z,17.73
2022-08-19T07:09:01.922Z,17.25
2022-08-19T07:14:07.633Z,16.40
2022-08-19T07:19:25.496Z,18.75
2022-08-19T07:24:31.210Z,15.55
2022-08-19T07:29:38.733Z,15.77
2022-08-19T07:34:43.329Z,16.65
2022-08-19T07:39:46.603Z,17.75
2022-08-19T07:44:50.543Z,18.65
2022-08-19T07:49:55.511Z,17.42
2022-08-19T07:55:01.036Z,18.45
2022-08-19T08:00:07.101Z,18.25
2022-08-19T08:05:29.438Z,21.15
2022-08-19T08:10:33.499Z,20.65
2022-08-19T08:15:42.750Z,18.13
2022-08-19T08:20:48.048Z,20.67
2022-08-19T08:25:51.555Z,18.13
2022-08-19T08:30:55.432Z,20.17
2022-08-19T08:36:00.043Z,18.85
2022-08-19T08:41:20.482Z,16.15
2022-08-19T08:46:32.865Z,15.60
2022-08-19T08:56:48.136Z,17.27
2022-08-19T09:01:55.001Z,19.63
2022-08-19T09:07:26.208Z,16.40
2022-08-19T09:12:44.761Z,15.40
2022-08-19T09:17:50.573Z,15.40
2022-08-19T09:22:55.154Z,16.25
2022-08-19T09:28:02.264Z,15.68
2022-08-19T09:33:07.314Z,16.58
2022-08-19T09:38:11.956Z,14.27
2022-08-19T09:43:15.164Z,15.68
2022-08-19T09:48:36.788Z,14.07
2022-08-19T09:53:41.536Z,14.35
2022-08-19T09:58:44.677Z,17.75
2022-08-19T10:03:51.824Z,15.70
2022-08-19T10:08:56.375Z,15.73
2022-08-19T10:14:00.775Z,16.50
2022-08-19T10:19:05.955Z,13.57
2022-08-19T10:24:10.600Z,18.90
2022-08-19T10:29:14.882Z,16.90
2022-08-19T10:34:37.218Z,16.40
2022-08-19T10:39:53.335Z,14.25
2022-08-19T10:44:56.560Z,15.65
2022-08-19T10:50:19.099Z,17.55
2022-08-19T10:55:43.283Z,17.38
2022-08-19T11:00:54.241Z,16.27
2022-08-19T11:06:01.748Z,17.02
2022-08-19T11:11:07.777Z,15.27
2022-08-19T11:16:15.107Z,18.20
2022-08-19T11:21:21.826Z,19.52
2022-08-19T11:26:26.964Z,18.67
2022-08-19T11:31:32.761Z,20.02
2022-08-19T11:36:36.934Z,19.85
2022-08-19T11:41:42.627Z,19.73
2022-08-19T11:46:47.455Z,20.00
2022-08-19T11:51:51.375Z,18.58
2022-08-19T11:56:57.195Z,19.02
2022-08-19T12:02:00.561Z,18.92
2022-08-19T12:07:04.374Z,18.42
2022-08-19T12:12:09.898Z,18.52
2022-08-19T12:17:14.429Z,18.88
2022-08-19T12:22:17.796Z,18.70
2022-08-19T12:27:32.293Z,17.58
2022-08-19T12:32:43.805Z,18.67
2022-08-19T12:37:56.738Z,17.83
2022-08-19T12:43:02.303Z,17.88
2022-08-19T12:48:33.843Z,17.67
2022-08-19T12:53:30.000Z,16.70
2022-08-19T12:58:35.621Z,17.00
2022-08-19T13:03:40.769Z,15.57
2022-08-19T13:08:46.628Z,15.88
2022-08-19T13:13:56.257Z,15.10
2022-08-19T13:19:00.171Z,16.38
2022-08-19T13:24:03.473Z,15.63
2022-08-19T13:30:38.220Z,15.18
2022-08-19T13:47:08.316Z,15.48
2022-08-19T13:52:12.935Z,16.05
2022-08-19T14:03:33.158Z,16.63
2022-08-19T14:47:57.036Z,14.88
2022-08-19T14:53:04.378Z,16.10
2022-08-19T14:58:29.451Z,16.67
2022-08-19T15:03:35.398Z,15.25
2022-08-19T15:08:40.528Z,14.23
2022-08-19T15:13:44.939Z,12.48
2022-08-19T15:18:53.382Z,12.43
2022-08-19T15:23:59.812Z,11.93
2022-08-19T15:29:04.375Z,14.52
2022-08-19T15:34:09.424Z,10.80
2022-08-19T15:39:12.733Z,12.15
2022-08-19T15:44:18.713Z,13.32
2022-08-19T15:49:23.561Z,13.35
2022-08-19T15:54:27.568Z,13.02
2022-08-19T15:59:48.527Z,12.75
2022-08-19T16:05:12.945Z,13.65
2022-08-19T16:10:27.101Z,14.07
2022-08-19T16:15:36.278Z,15.10
2022-08-19T16:20:41.082Z,14.70
2022-08-19T16:25:44.413Z,14.18
2022-08-19T16:30:51.020Z,15.88
2022-08-19T16:36:00.164Z,15.52
2022-08-19T16:41:03.866Z,16.05
2022-08-19T16:46:07.432Z,13.88
2022-08-19T16:51:13.102Z,14.77
2022-08-19T16:56:16.520Z,14.32
2022-08-19T17:01:20.116Z,13.80
2022-08-19T17:06:29.545Z,13.00
2022-08-19T17:11:33.912Z,13.85
2022-08-19T17:16:38.213Z,14.27
2022-08-19T17:21:42.862Z,15.68
2022-08-19T17:26:47.141Z,15.27
2022-08-19T17:31:50.960Z,15.52
2022-08-19T17:36:56.777Z,14.77
2022-08-19T17:42:02.984Z,14.73
2022-08-19T17:47:06.843Z,14.45
2022-08-19T17:52:12.018Z,11.63
2022-08-19T17:57:15.378Z,12.38
2022-08-19T18:02:19.864Z,11.00
2022-08-19T18:07:26.791Z,9.82
2022-08-19T18:12:35.883Z,10.15
2022-08-19T18:17:39.472Z,10.13
2022-08-19T18:22:46.851Z,10.55
2022-08-19T18:27:50.452Z,11.32
2022-08-19T18:32:55.024Z,12.40
2022-08-19T18:38:22.430Z,10.88
2022-08-19T18:43:42.049Z,10.35
2022-08-19T18:49:02.944Z,10.35
2022-08-19T18:54:08.238Z,9.95
2022-08-19T18:59:11.947Z,9.63
2022-08-19T19:04:15.749Z,10.00
2022-08-19T19:09:23.185Z,9.48
2022-08-19T19:14:48.209Z,10.20
2022-08-19T19:19:51.767Z,9.75
2022-08-19T19:24:59.614Z,10.48
2022-08-19T19:30:03.609Z,9.88
2022-08-19T19:35:10.801Z,10.30
2022-08-19T19:40:16.538Z,9.90
2022-08-19T19:45:22.599Z,9.98
2022-08-19T19:50:26.024Z,7.97
2022-08-19T19:55:30.921Z,8.20
2022-08-19T20:00:34.578Z,8.30
2022-08-19T20:05:40.820Z,8.68
2022-08-19T20:10:46.985Z,10.73
2022-08-19T20:15:53.118Z,9.77
2022-08-19T20:20:56.579Z,10.07
2022-08-19T20:26:01.372Z,11.50
2022-08-19T20:31:04.894Z,11.32
2022-08-19T20:36:08.790Z,11.57
2022-08-19T20:41:13.728Z,12.60
2022-08-19T20:46:17.173Z,11.00
2022-08-19T20:51:21.071Z,11.20
2022-08-19T20:56:25.781Z,11.43
2022-08-19T21:01:29.081Z,11.05
2022-08-19T21:06:32.344Z,9.63
2022-08-19T21:11:37.984Z,10.40
2022-08-19T21:16:41.283Z,10.13
2022-08-19T21:21:44.550Z,10.20
2022-08-19T21:26:51.364Z,10.75
2022-08-19T21:31:54.886Z,10.23
2022-08-19T21:36:58.277Z,9.38
2022-08-19T21:42:03.034Z,8.68
2022-08-19T21:47:06.618Z,7.65
2022-08-19T21:52:14.049Z,6.82
2022-08-19T21:57:19.121Z,6.95
2022-08-19T22:02:22.685Z,6.45
2022-08-19T22:07:25.960Z,6.07
2022-08-19T22:12:32.769Z,7.13
2022-08-19T22:17:36.324Z,6.47
2022-08-19T22:22:45.817Z,5.85
2022-08-19T22:27:51.380Z,6.50
2022-08-19T22:33:02.822Z,6.30
2022-08-19T22:38:08.305Z,6.90
2022-08-19T22:43:18.636Z,5.03
2022-08-19T22:48:24.087Z,5.28
2022-08-19T22:53:28.491Z,5.22
2022-08-19T22:58:33.105Z,4.68
2022-08-19T23:03:36.438Z,4.00
2022-08-19T23:08:39.927Z,4.00
2022-08-19T23:13:45.392Z,4.13
2022-08-19T23:18:48.697Z,3.47
2022-08-19T23:23:57.655Z,3.03
2022-08-19T23:29:19.952Z,2.85
2022-08-19T23:34:23.164Z,2.95
2022-08-19T23:39:29.913Z,2.60
2022-08-19T23:44:34.972Z,3.05
2022-08-19T23:49:55.044Z,4.80
2022-08-19T23:55:01.783Z,4.30
